createdAt,value
2022-10-13T00:01:58.217Z,15.63
2022-10-13T00:04:24.742Z,14.38
2022-10-13T00:06:51.282Z,10.70
2022-10-13T00:09:17.800Z,13.65
2022-10-13T00:11:44.365Z,10.85
2022-10-13T00:14:11.014Z,13.07
2022-10-13T00:16:37.689Z,11.00
2022-10-13T00:19:04.302Z,14.85
2022-10-13T00:21:31.013Z,12.00
2022-10-13T00:23:57.813Z,15.13
2022-10-13T00:26:25.821Z,13.15
2022-10-13T00:28:53.310Z,12.23
2022-10-13T00:31:24.948Z,18.58
2022-10-13T00:33:52.873Z,17.73
2022-10-13T00:36:21.318Z,14.93
2022-10-13T00:38:47.868Z,13.20
2022-10-13T00:41:14.907Z,15.10
2022-10-13T00:46:35.652Z,17.40
2022-10-13T00:49:09.708Z,14.32
2022-10-13T00:51:42.356Z,12.30
2022-10-13T00:54:11.515Z,13.30
2022-10-13T00:56:39.665Z,14.45
2022-10-13T00:59:13.647Z,12.90
2022-10-13T01:01:40.266Z,13.43
2022-10-13T01:04:06.908Z,13.43
2022-10-13T01:06:34.404Z,19.42
2022-10-13T01:09:00.897Z,14.00
2022-10-13T01:22:18.599Z,13.23
2022-10-13T01:25:03.266Z,15.20
2022-10-13T01:30:19.403Z,17.20
2022-10-13T01:38:33.960Z,19.63
2022-10-13T01:41:27.280Z,13.82
2022-10-13T01:46:43.928Z,14.30
2022-10-13T01:49:14.543Z,12.85
2022-10-13T01:51:42.246Z,16.23
2022-10-13T01:54:09.002Z,19.05
2022-10-13T01:56:35.597Z,14.05
2022-10-13T01:59:10.406Z,13.80
2022-10-13T02:07:32.578Z,18.42
2022-10-13T02:10:39.057Z,15.05
2022-10-13T02:13:08.536Z,17.02
2022-10-13T02:15:40.649Z,17.35
2022-10-13T02:18:09.403Z,16.30
2022-10-13T02:20:36.769Z,17.80
2022-10-13T02:23:09.528Z,16.75
2022-10-13T02:25:36.874Z,16.13
2022-10-13T02:28:04.211Z,16.98
2022-10-13T02:30:33.458Z,16.23
2022-10-13T02:33:02.850Z,17.58
2022-10-13T02:35:31.007Z,14.32
2022-10-13T02:37:57.560Z,14.02
2022-10-13T02:40:24.764Z,14.68
2022-10-13T02:42:51.411Z,16.05
2022-10-13T02:45:17.961Z,14.68
2022-10-13T02:47:44.660Z,19.45
2022-10-13T02:50:11.586Z,15.27
2022-10-13T02:52:38.342Z,14.57
2022-10-13T02:55:05.682Z,17.65
2022-10-13T02:57:32.624Z,21.33
2022-10-13T02:59:59.633Z,19.67
2022-10-13T03:02:27.601Z,16.95
2022-10-13T03:04:54.649Z,16.52
2022-10-13T03:07:21.206Z,14.60
2022-10-13T03:09:47.777Z,16.92
2022-10-13T03:12:14.317Z,15.07
2022-10-13T03:14:40.887Z,30.02
2022-10-13T03:17:12.462Z,21.92
2022-10-13T03:19:39.912Z,31.10
2022-10-13T03:22:06.533Z,29.25
2022-10-13T03:24:33.065Z,21.65
2022-10-13T03:26:59.577Z,24.25
2022-10-13T03:29:26.213Z,21.45
2022-10-13T03:31:52.722Z,17.60
2022-10-13T03:34:20.346Z,19.00
2022-10-13T03:36:47.085Z,19.48
2022-10-13T03:39:14.027Z,16.95
2022-10-13T03:41:40.552Z,18.02
2022-10-13T03:44:07.625Z,19.45
2022-10-13T03:46:34.239Z,16.20
2022-10-13T03:49:00.870Z,19.30
2022-10-13T03:51:27.415Z,18.25
2022-10-13T03:53:54.257Z,16.75
2022-10-13T03:56:25.227Z,18.02
2022-10-13T03:58:55.398Z,19.08
2022-10-13T04:01:23.627Z,17.35
2022-10-13T04:03:52.202Z,17.60
2022-10-13T04:06:18.758Z,20.77
2022-10-13T04:08:45.324Z,19.45
2022-10-13T04:11:14.142Z,20.40
2022-10-13T04:13:41.531Z,18.38
2022-10-13T04:16:13.734Z,17.20
2022-10-13T04:18:44.498Z,18.98
2022-10-13T04:21:15.003Z,18.63
2022-10-13T04:23:41.654Z,16.23
2022-10-13T04:26:16.371Z,13.15
2022-10-13T04:28:42.967Z,17.50
2022-10-13T04:31:09.744Z,16.05
2022-10-13T04:33:36.386Z,15.60
2022-10-13T04:36:05.528Z,15.98
2022-10-13T04:38:32.193Z,14.00
2022-10-13T04:40:58.771Z,15.27
2022-10-13T04:43:25.313Z,15.95
2022-10-13T04:45:51.875Z,16.02
2022-10-13T04:48:18.388Z,17.48
2022-10-13T04:50:45.006Z,17.10
2022-10-13T04:53:14.245Z,19.08
2022-10-13T04:55:44.746Z,16.77
2022-10-13T04:58:11.275Z,19.17
2022-10-13T05:00:37.834Z,15.15
2022-10-13T05:03:04.435Z,18.80
2022-10-13T05:05:30.986Z,15.00
2022-10-13T05:07:57.522Z,17.67
2022-10-13T05:10:24.087Z,16.60
2022-10-13T05:12:51.681Z,14.43
2022-10-13T05:15:18.256Z,15.20
2022-10-13T05:17:44.881Z,18.75
2022-10-13T05:20:11.945Z,22.00
2022-10-13T05:22:38.537Z,14.98
2022-10-13T05:25:05.406Z,25.75
2022-10-13T05:27:31.952Z,25.00
2022-10-13T05:29:58.561Z,22.50
2022-10-13T05:32:25.172Z,81.88
2022-10-13T05:34:51.794Z,191.52
2022-10-13T05:37:18.433Z,211.10
2022-10-13T05:39:48.775Z,118.30
2022-10-13T05:42:15.573Z,162.85
2022-10-13T05:44:42.859Z,77.10
2022-10-13T05:47:09.376Z,50.17
2022-10-13T05:49:39.645Z,13.50
2022-10-13T05:52:10.362Z,14.73
2022-10-13T05:54:42.163Z,16.45
2022-10-13T05:57:17.705Z,19.63
2022-10-13T05:59:52.437Z,69.88
2022-10-13T06:02:24.175Z,40.40
2022-10-13T06:04:53.886Z,45.90
2022-10-13T06:07:20.730Z,25.33
2022-10-13T06:09:47.352Z,18.48
2022-10-13T06:12:13.946Z,16.38
2022-10-13T06:14:40.531Z,15.32
2022-10-13T06:17:07.871Z,16.58
2022-10-13T06:19:34.600Z,16.42
2022-10-13T06:22:03.633Z,14.43
2022-10-13T06:24:30.569Z,12.15
2022-10-13T06:26:57.228Z,16.30
2022-10-13T06:29:23.820Z,18.80
2022-10-13T06:31:50.544Z,13.48
2022-10-13T06:34:17.085Z,16.15
2022-10-13T06:36:43.690Z,17.02
2022-10-13T06:39:10.389Z,18.15
2022-10-13T06:41:36.936Z,16.58
2022-10-13T06:44:03.669Z,16.17
2022-10-13T06:46:30.234Z,15.35
2022-10-13T06:48:56.746Z,17.05
2022-10-13T06:51:23.321Z,15.52
2022-10-13T06:53:49.885Z,14.45
2022-10-13T06:56:16.449Z,14.82
2022-10-13T06:58:42.987Z,15.43
2022-10-13T07:01:12.822Z,16.35
2022-10-13T07:03:39.362Z,13.68
2022-10-13T07:06:07.429Z,16.17
2022-10-13T07:08:34.981Z,14.02
2022-10-13T07:11:15.914Z,14.82
2022-10-13T07:13:46.473Z,17.13
2022-10-13T07:16:14.853Z,15.00
2022-10-13T07:18:41.599Z,19.00
2022-10-13T07:21:08.170Z,15.32
2022-10-13T07:23:34.777Z,13.10
2022-10-13T07:26:01.902Z,12.77
2022-10-13T07:28:28.709Z,13.18
2022-10-13T07:30:55.570Z,11.75
2022-10-13T07:33:22.650Z,14.00
2022-10-13T07:35:49.311Z,14.30
2022-10-13T07:38:16.006Z,14.40
2022-10-13T07:40:42.591Z,13.02
2022-10-13T07:43:09.185Z,16.63
2022-10-13T07:45:36.170Z,13.93
2022-10-13T07:48:02.776Z,13.68
2022-10-13T07:50:29.902Z,13.07
2022-10-13T07:52:56.495Z,15.80
2022-10-13T07:55:23.141Z,12.93
2022-10-13T07:57:49.682Z,15.02
2022-10-13T08:00:16.684Z,14.32
2022-10-13T08:02:43.223Z,14.07
2022-10-13T08:05:09.926Z,13.50
2022-10-13T08:07:39.279Z,13.93
2022-10-13T08:10:06.412Z,15.25
2022-10-13T08:12:35.575Z,14.80
2022-10-13T08:15:06.062Z,16.30
2022-10-13T08:17:33.328Z,13.45
2022-10-13T08:19:59.924Z,17.33
2022-10-13T08:22:28.447Z,19.08
2022-10-13T08:24:56.014Z,16.35
2022-10-13T08:27:32.830Z,15.65
2022-10-13T08:30:11.811Z,16.88
2022-10-13T08:32:38.385Z,16.25
2022-10-13T08:35:05.288Z,13.68
2022-10-13T08:37:31.905Z,17.70
2022-10-13T08:39:59.193Z,13.95
2022-10-13T08:42:25.812Z,11.65
2022-10-13T08:50:26.250Z,12.07
2022-10-13T08:53:04.594Z,13.85
2022-10-13T08:55:39.637Z,12.18
2022-10-13T08:58:14.872Z,12.40
2022-10-13T09:00:42.033Z,10.75
2022-10-13T09:03:22.664Z,12.65
2022-10-13T09:08:54.346Z,11.80
2022-10-13T09:11:21.199Z,12.40
2022-10-13T09:13:47.787Z,10.32
2022-10-13T09:16:15.397Z,10.60
2022-10-13T09:18:42.094Z,10.05
2022-10-13T09:21:11.326Z,11.55
2022-10-13T09:23:41.041Z,11.52
2022-10-13T09:26:16.071Z,14.98
2022-10-13T09:28:42.880Z,10.25
2022-10-13T09:31:24.695Z,12.30
2022-10-13T09:33:59.316Z,7.50
2022-10-13T09:36:26.292Z,9.10
2022-10-13T09:39:14.109Z,12.27
2022-10-13T09:41:42.310Z,13.52
2022-10-13T09:44:16.658Z,10.02
2022-10-13T09:46:55.400Z,10.27
2022-10-13T09:52:02.818Z,8.80
2022-10-13T09:57:41.993Z,10.45
2022-10-13T10:00:21.901Z,8.07
2022-10-13T10:05:57.628Z,14.68
2022-10-13T10:14:32.854Z,10.25
2022-10-13T10:17:31.003Z,7.95
2022-10-13T10:23:13.980Z,8.60
2022-10-13T10:25:47.107Z,8.88
2022-10-13T10:28:53.469Z,14.18
2022-10-13T10:39:55.086Z,7.95
2022-10-13T10:45:01.527Z,10.70
2022-10-13T10:47:36.343Z,5.47
2022-10-13T10:50:06.410Z,11.77
2022-10-13T10:55:30.165Z,9.63
2022-10-13T11:00:55.662Z,6.22
2022-10-13T11:08:47.539Z,6.43
2022-10-13T11:11:36.428Z,8.80
2022-10-13T11:19:39.310Z,9.15
2022-10-13T11:27:26.221Z,8.07
2022-10-13T11:29:57.303Z,6.28
2022-10-13T11:40:34.196Z,10.95
2022-10-13T11:51:53.494Z,7.63
2022-10-13T11:54:41.660Z,9.43
2022-10-13T11:57:20.259Z,7.05
2022-10-13T11:59:49.335Z,10.00
2022-10-13T12:02:19.162Z,5.15
2022-10-13T12:07:40.517Z,8.85
2022-10-13T12:10:17.367Z,7.20
2022-10-13T12:12:49.544Z,6.95
2022-10-13T12:18:30.004Z,9.00
2022-10-13T12:20:59.490Z,10.93
2022-10-13T12:23:27.132Z,4.50
2022-10-13T12:25:58.482Z,4.95
2022-10-13T12:28:28.133Z,5.15
2022-10-13T12:30:59.029Z,4.88
2022-10-13T12:36:17.705Z,5.32
2022-10-13T12:38:49.599Z,7.95
2022-10-13T12:41:20.078Z,5.25
2022-10-13T12:43:46.806Z,11.70
2022-10-13T12:46:13.403Z,10.40
2022-10-13T12:48:40.330Z,8.80
2022-10-13T12:53:52.469Z,7.60
2022-10-13T12:56:27.607Z,6.72
2022-10-13T12:58:54.963Z,6.35
2022-10-13T13:01:30.334Z,6.13
2022-10-13T13:04:01.277Z,8.98
2022-10-13T13:06:33.349Z,6.00
2022-10-13T13:09:18.790Z,7.15
2022-10-13T13:11:45.406Z,9.00
2022-10-13T13:14:35.695Z,7.32
2022-10-13T13:19:49.972Z,6.68
2022-10-13T13:22:16.714Z,5.82
2022-10-13T13:24:43.710Z,5.03
2022-10-13T13:27:28.018Z,7.30
2022-10-13T13:29:55.850Z,5.75
2022-10-13T13:32:25.387Z,13.32
2022-10-13T13:34:52.003Z,5.00
2022-10-13T13:37:37.584Z,6.43
2022-10-13T13:40:05.666Z,7.82
2022-10-13T13:42:33.036Z,8.20
2022-10-13T13:44:59.622Z,11.88
2022-10-13T13:47:28.660Z,9.65
2022-10-13T13:49:56.452Z,6.93
2022-10-13T13:52:25.312Z,7.72
2022-10-13T13:54:52.635Z,11.02
2022-10-13T13:57:20.340Z,5.72
2022-10-13T13:59:47.567Z,9.20
2022-10-13T14:02:18.850Z,4.40
2022-10-13T14:04:45.845Z,5.28
2022-10-13T14:07:12.885Z,6.80
2022-10-13T14:09:39.445Z,8.07
2022-10-13T14:12:06.140Z,7.05
2022-10-13T14:14:33.114Z,9.15
2022-10-13T14:17:01.227Z,6.20
2022-10-13T14:19:27.870Z,10.98
2022-10-13T14:21:54.425Z,10.35
2022-10-13T14:24:21.156Z,7.22
2022-10-13T14:26:47.720Z,5.25
2022-10-13T14:29:14.741Z,4.55
2022-10-13T14:31:41.432Z,7.30
2022-10-13T14:34:08.186Z,9.30
2022-10-13T14:36:34.968Z,7.80
2022-10-13T14:39:01.511Z,5.45
2022-10-13T14:41:28.162Z,6.63
2022-10-13T14:43:56.145Z,8.07
2022-10-13T14:46:23.357Z,7.75
2022-10-13T14:48:50.319Z,4.05
2022-10-13T14:51:17.369Z,4.43
2022-10-13T14:53:45.379Z,2.95
2022-10-13T14:56:17.614Z,4.70
2022-10-13T14:58:44.592Z,4.10
2022-10-13T15:01:11.193Z,8.73
2022-10-13T15:03:37.818Z,6.82
2022-10-13T15:06:04.547Z,6.93
2022-10-13T15:08:31.099Z,8.45
2022-10-13T15:11:02.565Z,3.08
2022-10-13T15:13:29.935Z,7.03
2022-10-13T15:15:57.686Z,6.72
2022-10-13T15:18:28.982Z,5.35
2022-10-13T15:20:55.889Z,6.47
2022-10-13T15:23:22.723Z,5.18
2022-10-13T15:25:51.249Z,5.85
2022-10-13T15:28:18.221Z,7.10
2022-10-13T15:30:45.717Z,7.68
2022-10-13T15:33:12.247Z,8.95
2022-10-13T15:35:38.811Z,6.93
2022-10-13T15:38:05.421Z,9.18
2022-10-13T15:40:33.690Z,9.25
2022-10-13T15:43:00.550Z,6.82
2022-10-13T15:45:27.407Z,8.50
2022-10-13T15:47:53.930Z,6.35
2022-10-13T15:50:20.648Z,7.10
2022-10-13T15:52:47.209Z,8.20
2022-10-13T15:55:13.918Z,11.00
2022-10-13T15:57:40.582Z,6.90
2022-10-13T16:00:09.697Z,8.90
2022-10-13T16:02:36.356Z,9.35
2022-10-13T16:05:05.331Z,7.72
2022-10-13T16:07:32.544Z,10.52
2022-10-13T16:09:59.283Z,7.88
2022-10-13T16:12:28.001Z,12.40
2022-10-13T16:14:54.861Z,9.43
2022-10-13T16:17:21.875Z,7.57
2022-10-13T16:19:48.717Z,7.72
2022-10-13T16:22:15.415Z,6.65
2022-10-13T16:24:41.954Z,8.93
2022-10-13T16:27:08.557Z,8.80
2022-10-13T16:29:35.138Z,7.78
2022-10-13T16:32:01.694Z,10.38
2022-10-13T16:34:28.234Z,10.68
2022-10-13T16:36:54.961Z,8.38
2022-10-13T16:39:23.373Z,8.60
2022-10-13T16:41:51.299Z,10.35
2022-10-13T16:44:18.156Z,10.63
2022-10-13T16:46:45.314Z,10.18
2022-10-13T16:49:12.934Z,7.78
2022-10-13T16:51:39.490Z,8.68
2022-10-13T16:54:06.243Z,9.80
2022-10-13T16:56:33.207Z,7.25
2022-10-13T16:59:04.017Z,8.18
2022-10-13T17:01:32.536Z,8.00
2022-10-13T17:03:59.198Z,11.73
2022-10-13T17:06:27.847Z,9.73
2022-10-13T17:08:55.219Z,9.50
2022-10-13T17:11:25.064Z,11.85
2022-10-13T17:16:19.297Z,11.43
2022-10-13T17:18:46.573Z,8.40
2022-10-13T17:21:16.027Z,10.93
2022-10-13T17:23:48.115Z,11.20
2022-10-13T17:26:16.984Z,10.35
2022-10-13T17:28:43.707Z,14.98
2022-10-13T17:33:50.071Z,9.15
2022-10-13T17:38:56.314Z,14.65
2022-10-13T17:41:24.264Z,11.10
2022-10-13T17:43:52.024Z,12.15
2022-10-13T17:46:36.288Z,7.47
2022-10-13T17:49:04.590Z,12.50
2022-10-13T17:51:31.222Z,7.45
2022-10-13T17:53:59.609Z,10.48
2022-10-13T17:56:26.864Z,11.02
2022-10-13T17:58:53.872Z,8.43
2022-10-13T18:01:24.527Z,11.63
2022-10-13T18:03:54.364Z,11.15
2022-10-13T18:06:22.249Z,10.05
2022-10-13T18:08:50.605Z,12.40
2022-10-13T18:11:19.872Z,10.65
2022-10-13T18:13:47.001Z,13.57
2022-10-13T18:16:18.214Z,9.27
2022-10-13T18:18:45.757Z,11.35
2022-10-13T18:21:14.663Z,10.02
2022-10-13T18:23:42.050Z,10.18
2022-10-13T18:26:12.557Z,11.95
2022-10-13T18:28:40.523Z,13.02
2022-10-13T18:31:09.863Z,14.55
2022-10-13T18:33:36.853Z,10.57
2022-10-13T18:36:23.697Z,10.80
2022-10-13T18:38:52.098Z,11.25
2022-10-13T18:41:22.251Z,15.80
2022-10-13T18:43:48.921Z,10.25
2022-10-13T18:46:15.461Z,11.82
2022-10-13T18:48:42.265Z,13.73
2022-10-13T18:51:13.265Z,11.90
2022-10-13T18:53:43.633Z,12.05
2022-10-13T18:56:14.294Z,14.60
2022-10-13T18:58:41.341Z,10.45
2022-10-13T19:01:10.352Z,11.38
2022-10-13T19:03:38.635Z,10.95
2022-10-13T19:06:07.363Z,14.18
2022-10-13T19:08:34.751Z,11.70
2022-10-13T19:11:01.597Z,11.20
2022-10-13T19:13:28.263Z,13.45
2022-10-13T19:16:02.930Z,9.88
2022-10-13T19:18:29.757Z,12.00
2022-10-13T19:20:56.360Z,13.75
2022-10-13T19:23:22.973Z,10.32
2022-10-13T19:25:49.786Z,9.38
2022-10-13T19:28:16.709Z,10.45
2022-10-13T19:30:43.766Z,10.43
2022-10-13T19:33:12.281Z,12.05
2022-10-13T19:35:45.240Z,10.18
2022-10-13T19:38:12.319Z,9.38
2022-10-13T19:40:43.587Z,13.02
2022-10-13T19:43:11.107Z,12.63
2022-10-13T19:45:44.479Z,12.13
2022-10-13T19:48:11.116Z,8.82
2022-10-13T19:50:37.891Z,10.05
2022-10-13T19:53:05.000Z,9.88
2022-10-13T19:55:36.912Z,10.77
2022-10-13T19:58:03.493Z,9.98
2022-10-13T20:00:30.256Z,12.30
2022-10-13T20:02:56.796Z,12.18
2022-10-13T20:05:25.447Z,11.52
2022-10-13T20:07:52.280Z,12.00
2022-10-13T20:10:18.903Z,11.90
2022-10-13T20:12:45.491Z,11.32
2022-10-13T20:15:12.223Z,11.15
2022-10-13T20:17:38.777Z,11.90
2022-10-13T20:20:06.590Z,10.48
2022-10-13T20:22:33.697Z,11.93
2022-10-13T20:25:00.258Z,8.57
2022-10-13T20:27:26.868Z,12.07
2022-10-13T20:29:53.389Z,9.90
2022-10-13T20:32:20.069Z,10.02
2022-10-13T20:34:46.689Z,10.75
2022-10-13T20:37:13.250Z,9.55
2022-10-13T20:39:39.883Z,9.57
2022-10-13T20:42:06.539Z,9.65
2022-10-13T20:44:33.229Z,11.27
2022-10-13T20:47:00.213Z,10.38
2022-10-13T20:49:27.123Z,10.68
2022-10-13T20:51:53.690Z,11.93
2022-10-13T20:54:20.492Z,10.30
2022-10-13T20:56:47.337Z,12.45
2022-10-13T20:59:15.625Z,12.77
2022-10-13T21:01:42.518Z,12.32
2022-10-13T21:04:09.120Z,10.77
2022-10-13T21:06:36.520Z,11.02
2022-10-13T21:09:05.581Z,13.93
2022-10-13T21:11:32.562Z,10.85
2022-10-13T21:13:59.129Z,9.98
2022-10-13T21:16:27.926Z,11.75
2022-10-13T21:18:56.154Z,10.25
2022-10-13T21:21:26.727Z,16.20
2022-10-13T21:23:56.691Z,12.85
2022-10-13T21:28:51.626Z,12.60
2022-10-13T21:31:20.740Z,11.52
2022-10-13T21:33:48.174Z,14.60
2022-10-13T21:36:18.743Z,13.10
2022-10-13T21:38:49.989Z,10.30
2022-10-13T21:41:16.605Z,14.25
2022-10-13T21:43:43.231Z,12.38
2022-10-13T21:46:12.187Z,11.10
2022-10-13T21:48:39.366Z,8.48
2022-10-13T21:53:56.693Z,13.15
2022-10-13T21:56:23.894Z,12.52
2022-10-13T21:58:50.595Z,8.63
2022-10-13T22:01:18.647Z,10.80
2022-10-13T22:03:47.559Z,8.63
2022-10-13T22:06:18.972Z,10.90
2022-10-13T22:08:48.373Z,11.98
2022-10-13T22:11:15.856Z,8.73
2022-10-13T22:13:42.398Z,13.52
2022-10-13T22:16:19.033Z,10.85
2022-10-13T22:18:45.966Z,10.38
2022-10-13T22:21:16.000Z,7.53
2022-10-13T22:26:10.122Z,10.07
2022-10-13T22:28:37.681Z,13.40
2022-10-13T22:31:06.366Z,12.20
2022-10-13T22:33:34.734Z,10.45
2022-10-13T22:36:06.387Z,10.57
2022-10-13T22:38:32.916Z,11.25
2022-10-13T22:41:04.153Z,9.70
2022-10-13T22:43:30.902Z,11.00
2022-10-13T22:45:57.707Z,10.38
2022-10-13T22:48:24.550Z,13.88
2022-10-13T22:50:51.096Z,13.73
2022-10-13T22:53:17.718Z,12.32
2022-10-13T22:55:44.321Z,12.88
2022-10-13T22:58:10.908Z,11.77
2022-10-13T23:00:38.687Z,11.18
2022-10-13T23:03:06.080Z,9.70
2022-10-13T23:05:32.757Z,12.65
2022-10-13T23:07:59.429Z,12.05
2022-10-13T23:10:26.078Z,15.30
2022-10-13T23:12:52.613Z,15.02
2022-10-13T23:15:19.198Z,10.20
2022-10-13T23:17:45.779Z,10.25
2022-10-13T23:20:12.700Z,11.23
2022-10-13T23:22:39.223Z,11.27
2022-10-13T23:25:06.133Z,16.70
2022-10-13T23:27:32.717Z,13.88
2022-10-13T23:29:59.233Z,12.88
2022-10-13T23:32:25.879Z,11.43
2022-10-13T23:34:52.415Z,13.57
2022-10-13T23:37:19.194Z,11.05
2022-10-13T23:39:46.042Z,8.57
2022-10-13T23:42:12.581Z,11.57
2022-10-13T23:44:39.174Z,13.05
2022-10-13T23:47:05.731Z,11.57
2022-10-13T23:49:32.313Z,13.68
2022-10-13T23:51:58.919Z,9.15
2022-10-13T23:54:25.503Z,14.18
2022-10-13T23:56:52.043Z,10.75
2022-10-13T23:59:18.631Z,13.05
